Hovedside
METAR-TAF:

METAR-TAF

Lufthavner :

Røst lufthavn

Røst, Norge

breddegrad: 67-31N, lengdegrad: 012-06E, høyde over havet: 4 m

Gjeldene værobservasjon

Denne rapporten ble laget for 5 timer og 34 minutter siden, klokken 07:20 UTC
Vind 6 kt fra Øst
Temperatur 14°C
Luftfuktighet 88%
Trykk 1017 hPa
Sikt 10 km eller mer
Få skyer i en høyde av 2000 ft

METAR: ENRS 200720Z 08006KT 9999 FEW020 14/12 Q1017

Tid: 14:54 (12:54 UTC)


TAF: fraværende

Værobservasjoner og værvarsel for over 4000 flyplasser (METAR- og TAF-rapporter).

Tilgjengelige stasjoner er representert av de røde og gule prikkene på kartet.

Hold musepekeren over prikken for å se navnet på stasjonen.

Klikk så for å se værobservasjoner og -varsler.

For å forandre kartet kan du klikke på den grønne knappen med svart kryss for å zoome inn, på den grønne knappen med strek for å zoome ut, eller på de grønne pilene for å se tilstøtende kart.


METAR-TAF: